sensor_id;sensor_type;location;lat;lon;timestamp;temperature;humidity
26063;DHT22;13837;48.562;12.108;2023-12-22T00:02:09;4.40;99.90
26063;DHT22;13837;48.562;12.108;2023-12-22T00:04:35;4.30;99.90
26063;DHT22;13837;48.562;12.108;2023-12-22T00:07:00;4.30;99.90
26063;DHT22;13837;48.562;12.108;2023-12-22T00:09:26;4.20;99.90
26063;DHT22;13837;48.562;12.108;2023-12-22T00:11:51;4.10;99.90
26063;DHT22;13837;48.562;12.108;2023-12-22T00:14:17;4.00;99.90
26063;DHT22;13837;48.562;12.108;2023-12-22T00:16:42;3.90;99.90
26063;DHT22;13837;48.562;12.108;2023-12-22T00:19:08;3.90;99.90
26063;DHT22;13837;48.562;12.108;2023-12-22T00:21:34;3.90;99.90
26063;DHT22;13837;48.562;12.108;2023-12-22T00:24:00;3.80;99.90
26063;DHT22;13837;48.562;12.108;2023-12-22T00:26:26;3.80;99.90
26063;DHT22;13837;48.562;12.108;2023-12-22T00:28:51;3.70;99.90
26063;DHT22;13837;48.562;12.108;2023-12-22T00:31:17;3.70;99.90
26063;DHT22;13837;48.562;12.108;2023-12-22T00:33:43;3.60;99.90
26063;DHT22;13837;48.562;12.108;2023-12-22T00:36:09;3.60;99.90
26063;DHT22;13837;48.562;12.108;2023-12-22T00:38:35;3.60;99.90
26063;DHT22;13837;48.562;12.108;2023-12-22T00:41:00;3.50;99.90
26063;DHT22;13837;48.562;12.108;2023-12-22T00:43:26;3.50;99.90
26063;DHT22;13837;48.562;12.108;2023-12-22T00:45:52;3.50;99.90
26063;DHT22;13837;48.562;12.108;2023-12-22T00:48:17;3.40;99.90
26063;DHT22;13837;48.562;12.108;2023-12-22T00:50:43;3.40;99.90
26063;DHT22;13837;48.562;12.108;2023-12-22T00:53:09;3.50;99.90
26063;DHT22;13837;48.562;12.108;2023-12-22T00:55:35;3.40;99.90
26063;DHT22;13837;48.562;12.108;2023-12-22T00:58:01;3.40;99.90
26063;DHT22;13837;48.562;12.108;2023-12-22T01:00:26;3.40;99.90
26063;DHT22;13837;48.562;12.108;2023-12-22T01:02:52;3.40;99.90
26063;DHT22;13837;48.562;12.108;2023-12-22T01:05:17;3.40;99.90
26063;DHT22;13837;48.562;12.108;2023-12-22T01:07:43;3.40;99.90
26063;DHT22;13837;48.562;12.108;2023-12-22T01:10:09;3.30;99.90
26063;DHT22;13837;48.562;12.108;2023-12-22T01:12:34;3.30;99.90
26063;DHT22;13837;48.562;12.108;2023-12-22T01:15:00;3.30;99.90
26063;DHT22;13837;48.562;12.108;2023-12-22T01:17:26;3.30;99.90
26063;DHT22;13837;48.562;12.108;2023-12-22T01:19:51;3.30;99.90
26063;DHT22;13837;48.562;12.108;2023-12-22T01:22:17;3.30;99.90
26063;DHT22;13837;48.562;12.108;2023-12-22T01:24:43;3.30;99.90
26063;DHT22;13837;48.562;12.108;2023-12-22T01:27:11;3.30;99.90
26063;DHT22;13837;48.562;12.108;2023-12-22T01:29:36;3.30;99.90
26063;DHT22;13837;48.562;12.108;2023-12-22T01:32:02;3.30;99.90
26063;DHT22;13837;48.562;12.108;2023-12-22T01:34:28;3.20;99.90
26063;DHT22;13837;48.562;12.108;2023-12-22T01:36:54;3.20;99.90
26063;DHT22;13837;48.562;12.108;2023-12-22T01:39:20;3.20;99.90
26063;DHT22;13837;48.562;12.108;2023-12-22T01:41:45;3.20;99.90
26063;DHT22;13837;48.562;12.108;2023-12-22T01:44:11;3.20;99.90
26063;DHT22;13837;48.562;12.108;2023-12-22T01:46:37;3.10;99.90
26063;DHT22;13837;48.562;12.108;2023-12-22T01:49:04;3.10;99.90
26063;DHT22;13837;48.562;12.108;2023-12-22T01:51:32;3.10;99.90
26063;DHT22;13837;48.562;12.108;2023-12-22T01:53:58;3.00;99.90
26063;DHT22;13837;48.562;12.108;2023-12-22T01:56:24;3.00;99.90
26063;DHT22;13837;48.562;12.108;2023-12-22T01:58:52;3.00;99.90
26063;DHT22;13837;48.562;12.108;2023-12-22T02:01:20;3.00;99.90
26063;DHT22;13837;48.562;12.108;2023-12-22T02:03:48;3.00;99.90
26063;DHT22;13837;48.562;12.108;2023-12-22T02:06:15;3.00;99.90
26063;DHT22;13837;48.562;12.108;2023-12-22T02:08:46;3.00;99.90
26063;DHT22;13837;48.562;12.108;2023-12-22T02:11:12;3.00;99.90
26063;DHT22;13837;48.562;12.108;2023-12-22T02:13:38;3.00;99.90
26063;DHT22;13837;48.562;12.108;2023-12-22T02:16:37;3.00;99.90
26063;DHT22;13837;48.562;12.108;2023-12-22T02:22:03;3.00;99.90
26063;DHT22;13837;48.562;12.108;2023-12-22T02:24:29;3.00;99.90
26063;DHT22;13837;48.562;12.108;2023-12-22T02:32:59;3.00;99.90
26063;DHT22;13837;48.562;12.108;2023-12-22T02:35:27;2.90;99.90
26063;DHT22;13837;48.562;12.108;2023-12-22T02:37:56;2.90;99.90
26063;DHT22;13837;48.562;12.108;2023-12-22T02:40:23;2.90;99.90
26063;DHT22;13837;48.562;12.108;2023-12-22T02:42:50;2.90;99.90
26063;DHT22;13837;48.562;12.108;2023-12-22T02:45:17;2.90;99.90
26063;DHT22;13837;48.562;12.108;2023-12-22T02:47:44;3.00;99.90
26063;DHT22;13837;48.562;12.108;2023-12-22T02:50:10;3.00;99.90
26063;DHT22;13837;48.562;12.108;2023-12-22T02:52:37;3.00;99.90
26063;DHT22;13837;48.562;12.108;2023-12-22T02:55:03;3.00;99.90
26063;DHT22;13837;48.562;12.108;2023-12-22T02:57:29;2.90;99.90
26063;DHT22;13837;48.562;12.108;2023-12-22T02:59:55;2.90;99.90
26063;DHT22;13837;48.562;12.108;2023-12-22T03:02:20;2.90;99.90
26063;DHT22;13837;48.562;12.108;2023-12-22T03:04:46;2.80;99.90
26063;DHT22;13837;48.562;12.108;2023-12-22T03:07:12;2.80;99.90
26063;DHT22;13837;48.562;12.108;2023-12-22T03:09:38;2.70;99.90
26063;DHT22;13837;48.562;12.108;2023-12-22T03:12:04;2.70;99.90
26063;DHT22;13837;48.562;12.108;2023-12-22T03:14:31;2.70;99.90
26063;DHT22;13837;48.562;12.108;2023-12-22T03:17:03;2.70;99.90
26063;DHT22;13837;48.562;12.108;2023-12-22T03:19:29;2.60;99.90
26063;DHT22;13837;48.562;12.108;2023-12-22T03:21:55;2.70;99.90
26063;DHT22;13837;48.562;12.108;2023-12-22T03:24:22;2.60;99.90
26063;DHT22;13837;48.562;12.108;2023-12-22T03:26:52;2.70;99.90
26063;DHT22;13837;48.562;12.108;2023-12-22T03:29:18;2.70;99.90
26063;DHT22;13837;48.562;12.108;2023-12-22T03:31:44;2.70;99.90
26063;DHT22;13837;48.562;12.108;2023-12-22T03:34:10;2.70;99.90
26063;DHT22;13837;48.562;12.108;2023-12-22T03:36:36;2.70;99.90
26063;DHT22;13837;48.562;12.108;2023-12-22T03:39:03;2.70;99.90
26063;DHT22;13837;48.562;12.108;2023-12-22T03:41:29;2.80;99.90
26063;DHT22;13837;48.562;12.108;2023-12-22T03:43:56;2.70;99.90
26063;DHT22;13837;48.562;12.108;2023-12-22T03:46:22;2.70;99.90
26063;DHT22;13837;48.562;12.108;2023-12-22T03:48:47;2.70;99.90
26063;DHT22;13837;48.562;12.108;2023-12-22T03:51:13;2.60;99.90
26063;DHT22;13837;48.562;12.108;2023-12-22T03:53:40;2.60;99.90
26063;DHT22;13837;48.562;12.108;2023-12-22T03:56:08;2.60;99.90
26063;DHT22;13837;48.562;12.108;2023-12-22T03:58:37;2.60;99.90
26063;DHT22;13837;48.562;12.108;2023-12-22T04:01:03;2.60;99.90
26063;DHT22;13837;48.562;12.108;2023-12-22T04:03:29;2.60;99.90
26063;DHT22;13837;48.562;12.108;2023-12-22T04:05:55;2.60;99.90
26063;DHT22;13837;48.562;12.108;2023-12-22T04:08:20;2.60;99.90
26063;DHT22;13837;48.562;12.108;2023-12-22T04:10:46;2.60;99.90
26063;DHT22;13837;48.562;12.108;2023-12-22T04:13:12;2.50;99.90
26063;DHT22;13837;48.562;12.108;2023-12-22T04:15:38;2.50;99.90
26063;DHT22;13837;48.562;12.108;2023-12-22T04:18:04;2.50;99.90
26063;DHT22;13837;48.562;12.108;2023-12-22T04:20:30;2.50;99.90
26063;DHT22;13837;48.562;12.108;2023-12-22T04:22:55;2.50;99.90
26063;DHT22;13837;48.562;12.108;2023-12-22T04:25:21;2.40;99.90
26063;DHT22;13837;48.562;12.108;2023-12-22T04:27:48;2.40;99.90
26063;DHT22;13837;48.562;12.108;2023-12-22T04:30:15;2.40;99.90
26063;DHT22;13837;48.562;12.108;2023-12-22T04:32:40;2.40;99.90
26063;DHT22;13837;48.562;12.108;2023-12-22T04:35:07;2.50;99.90
26063;DHT22;13837;48.562;12.108;2023-12-22T04:37:32;2.50;99.90
26063;DHT22;13837;48.562;12.108;2023-12-22T04:39:58;2.50;99.90
26063;DHT22;13837;48.562;12.108;2023-12-22T04:42:24;2.50;99.90
26063;DHT22;13837;48.562;12.108;2023-12-22T04:44:51;2.50;99.90
26063;DHT22;13837;48.562;12.108;2023-12-22T04:47:17;2.40;99.90
26063;DHT22;13837;48.562;12.108;2023-12-22T04:49:42;2.30;99.90
26063;DHT22;13837;48.562;12.108;2023-12-22T04:52:09;2.30;99.90
26063;DHT22;13837;48.562;12.108;2023-12-22T04:54:34;2.30;99.90
26063;DHT22;13837;48.562;12.108;2023-12-22T04:57:00;2.40;99.90
26063;DHT22;13837;48.562;12.108;2023-12-22T04:59:26;2.40;99.90
26063;DHT22;13837;48.562;12.108;2023-12-22T05:01:51;2.30;99.90
26063;DHT22;13837;48.562;12.108;2023-12-22T05:04:17;2.40;99.90
26063;DHT22;13837;48.562;12.108;2023-12-22T05:06:43;2.40;99.90
26063;DHT22;13837;48.562;12.108;2023-12-22T05:09:11;2.40;99.90
26063;DHT22;13837;48.562;12.108;2023-12-22T05:11:36;2.40;99.90
26063;DHT22;13837;48.562;12.108;2023-12-22T05:14:02;2.40;99.90
26063;DHT22;13837;48.562;12.108;2023-12-22T05:16:28;2.40;99.90
26063;DHT22;13837;48.562;12.108;2023-12-22T05:18:59;2.50;99.90
26063;DHT22;13837;48.562;12.108;2023-12-22T05:21:25;2.40;99.90
26063;DHT22;13837;48.562;12.108;2023-12-22T05:23:51;2.40;99.90
26063;DHT22;13837;48.562;12.108;2023-12-22T05:26:25;2.40;99.90
26063;DHT22;13837;48.562;12.108;2023-12-22T05:28:55;2.40;99.90
26063;DHT22;13837;48.562;12.108;2023-12-22T05:31:21;2.40;99.90
26063;DHT22;13837;48.562;12.108;2023-12-22T05:33:46;2.40;99.90
26063;DHT22;13837;48.562;12.108;2023-12-22T05:36:12;2.40;99.90
26063;DHT22;13837;48.562;12.108;2023-12-22T05:38:38;2.50;99.90
26063;DHT22;13837;48.562;12.108;2023-12-22T05:41:04;2.50;99.90
26063;DHT22;13837;48.562;12.108;2023-12-22T05:43:32;2.50;99.90
26063;DHT22;13837;48.562;12.108;2023-12-22T05:45:59;2.40;99.90
26063;DHT22;13837;48.562;12.108;2023-12-22T05:48:25;2.50;99.90
26063;DHT22;13837;48.562;12.108;2023-12-22T05:50:51;2.50;99.90
26063;DHT22;13837;48.562;12.108;2023-12-22T05:53:17;2.50;99.90
26063;DHT22;13837;48.562;12.108;2023-12-22T05:55:42;2.50;99.90
26063;DHT22;13837;48.562;12.108;2023-12-22T05:58:08;2.50;99.90
26063;DHT22;13837;48.562;12.108;2023-12-22T06:00:34;2.50;99.90
26063;DHT22;13837;48.562;12.108;2023-12-22T06:03:01;2.50;99.90
26063;DHT22;13837;48.562;12.108;2023-12-22T06:05:27;2.60;99.90
26063;DHT22;13837;48.562;12.108;2023-12-22T06:07:53;2.50;99.90
26063;DHT22;13837;48.562;12.108;2023-12-22T06:10:19;2.50;99.90
26063;DHT22;13837;48.562;12.108;2023-12-22T06:12:45;2.50;99.90
26063;DHT22;13837;48.562;12.108;2023-12-22T06:15:11;2.50;99.90
26063;DHT22;13837;48.562;12.108;2023-12-22T06:17:36;2.50;99.90
26063;DHT22;13837;48.562;12.108;2023-12-22T06:20:02;2.50;99.90
26063;DHT22;13837;48.562;12.108;2023-12-22T06:22:27;2.40;99.90
26063;DHT22;13837;48.562;12.108;2023-12-22T06:24:53;2.50;99.90
26063;DHT22;13837;48.562;12.108;2023-12-22T06:27:19;2.40;99.90
26063;DHT22;13837;48.562;12.108;2023-12-22T06:29:44;2.40;99.90
26063;DHT22;13837;48.562;12.108;2023-12-22T06:32:10;2.40;99.90
26063;DHT22;13837;48.562;12.108;2023-12-22T06:34:36;2.40;99.90
26063;DHT22;13837;48.562;12.108;2023-12-22T06:37:01;2.40;99.90
26063;DHT22;13837;48.562;12.108;2023-12-22T06:39:27;2.40;99.90
26063;DHT22;13837;48.562;12.108;2023-12-22T06:41:53;2.40;99.90
26063;DHT22;13837;48.562;12.108;2023-12-22T06:44:18;2.40;99.90
26063;DHT22;13837;48.562;12.108;2023-12-22T06:46:44;2.40;99.90
26063;DHT22;13837;48.562;12.108;2023-12-22T06:49:10;2.40;99.90
26063;DHT22;13837;48.562;12.108;2023-12-22T06:51:36;2.30;99.90
26063;DHT22;13837;48.562;12.108;2023-12-22T06:54:03;2.30;99.90
26063;DHT22;13837;48.562;12.108;2023-12-22T06:56:31;2.30;99.90
26063;DHT22;13837;48.562;12.108;2023-12-22T06:58:58;2.30;99.90
26063;DHT22;13837;48.562;12.108;2023-12-22T07:01:28;2.30;99.90
26063;DHT22;13837;48.562;12.108;2023-12-22T07:03:54;2.30;99.90
26063;DHT22;13837;48.562;12.108;2023-12-22T07:06:22;2.30;99.90
26063;DHT22;13837;48.562;12.108;2023-12-22T07:11:48;2.30;99.90
26063;DHT22;13837;48.562;12.108;2023-12-22T07:14:15;2.30;99.90
26063;DHT22;13837;48.562;12.108;2023-12-22T07:16:41;2.40;99.90
26063;DHT22;13837;48.562;12.108;2023-12-22T07:19:08;2.40;99.90
26063;DHT22;13837;48.562;12.108;2023-12-22T07:21:34;2.40;99.90
26063;DHT22;13837;48.562;12.108;2023-12-22T07:24:00;2.50;99.90
26063;DHT22;13837;48.562;12.108;2023-12-22T07:26:26;2.50;99.90
26063;DHT22;13837;48.562;12.108;2023-12-22T07:28:52;2.50;99.90
26063;DHT22;13837;48.562;12.108;2023-12-22T07:31:18;2.60;99.90
26063;DHT22;13837;48.562;12.108;2023-12-22T07:33:44;2.60;99.90
26063;DHT22;13837;48.562;12.108;2023-12-22T07:36:10;2.70;99.90
26063;DHT22;13837;48.562;12.108;2023-12-22T07:38:36;2.70;99.90
26063;DHT22;13837;48.562;12.108;2023-12-22T07:41:01;2.70;99.90
26063;DHT22;13837;48.562;12.108;2023-12-22T07:43:27;2.70;99.90
26063;DHT22;13837;48.562;12.108;2023-12-22T07:45:55;2.70;99.90
26063;DHT22;13837;48.562;12.108;2023-12-22T07:48:20;2.80;99.90
26063;DHT22;13837;48.562;12.108;2023-12-22T07:50:46;2.80;99.90
26063;DHT22;13837;48.562;12.108;2023-12-22T07:53:12;2.70;99.90
26063;DHT22;13837;48.562;12.108;2023-12-22T07:55:37;2.80;99.90
26063;DHT22;13837;48.562;12.108;2023-12-22T07:58:07;2.80;99.90
26063;DHT22;13837;48.562;12.108;2023-12-22T08:00:33;2.80;99.90
26063;DHT22;13837;48.562;12.108;2023-12-22T08:02:59;2.80;99.90
26063;DHT22;13837;48.562;12.108;2023-12-22T08:05:24;2.80;99.90
26063;DHT22;13837;48.562;12.108;2023-12-22T08:07:50;2.90;99.90
26063;DHT22;13837;48.562;12.108;2023-12-22T08:10:16;2.90;99.90
26063;DHT22;13837;48.562;12.108;2023-12-22T08:12:42;2.90;99.90
26063;DHT22;13837;48.562;12.108;2023-12-22T08:15:08;2.80;99.90
26063;DHT22;13837;48.562;12.108;2023-12-22T08:17:36;2.80;99.90
26063;DHT22;13837;48.562;12.108;2023-12-22T08:20:03;2.90;99.90
26063;DHT22;13837;48.562;12.108;2023-12-22T08:22:29;2.90;99.90
26063;DHT22;13837;48.562;12.108;2023-12-22T08:24:55;3.00;99.90
26063;DHT22;13837;48.562;12.108;2023-12-22T08:27:20;3.00;99.90
26063;DHT22;13837;48.562;12.108;2023-12-22T08:29:46;3.10;99.90
26063;DHT22;13837;48.562;12.108;2023-12-22T08:32:11;3.10;99.90
26063;DHT22;13837;48.562;12.108;2023-12-22T08:34:38;3.10;99.90
26063;DHT22;13837;48.562;12.108;2023-12-22T08:37:03;3.20;99.90
26063;DHT22;13837;48.562;12.108;2023-12-22T08:39:29;3.30;99.90
26063;DHT22;13837;48.562;12.108;2023-12-22T08:41:55;3.40;99.90
26063;DHT22;13837;48.562;12.108;2023-12-22T08:44:20;3.50;99.90
26063;DHT22;13837;48.562;12.108;2023-12-22T08:46:46;3.60;99.90
26063;DHT22;13837;48.562;12.108;2023-12-22T08:49:12;3.60;99.90
26063;DHT22;13837;48.562;12.108;2023-12-22T08:51:37;3.70;99.90
26063;DHT22;13837;48.562;12.108;2023-12-22T08:54:03;3.70;99.90
26063;DHT22;13837;48.562;12.108;2023-12-22T08:56:31;3.70;99.90
26063;DHT22;13837;48.562;12.108;2023-12-22T08:58:57;3.60;99.90
26063;DHT22;13837;48.562;12.108;2023-12-22T09:01:25;3.50;99.90
26063;DHT22;13837;48.562;12.108;2023-12-22T09:03:51;3.50;99.90
26063;DHT22;13837;48.562;12.108;2023-12-22T09:06:22;3.50;99.90
26063;DHT22;13837;48.562;12.108;2023-12-22T09:08:48;3.60;99.90
26063;DHT22;13837;48.562;12.108;2023-12-22T09:11:20;3.60;99.90
26063;DHT22;13837;48.562;12.108;2023-12-22T09:13:47;3.60;99.90
26063;DHT22;13837;48.562;12.108;2023-12-22T09:16:12;3.70;99.90
26063;DHT22;13837;48.562;12.108;2023-12-22T09:18:41;3.70;99.90
26063;DHT22;13837;48.562;12.108;2023-12-22T09:21:08;3.70;99.90
26063;DHT22;13837;48.562;12.108;2023-12-22T09:23:33;3.60;99.90
26063;DHT22;13837;48.562;12.108;2023-12-22T09:25:59;3.50;99.90
26063;DHT22;13837;48.562;12.108;2023-12-22T09:28:25;3.50;99.90
26063;DHT22;13837;48.562;12.108;2023-12-22T09:30:51;3.50;99.90
26063;DHT22;13837;48.562;12.108;2023-12-22T09:33:16;3.50;99.90
26063;DHT22;13837;48.562;12.108;2023-12-22T09:35:42;3.60;99.90
26063;DHT22;13837;48.562;12.108;2023-12-22T09:38:11;3.70;99.90
26063;DHT22;13837;48.562;12.108;2023-12-22T09:40:38;3.70;99.90
26063;DHT22;13837;48.562;12.108;2023-12-22T09:43:06;3.80;99.90
26063;DHT22;13837;48.562;12.108;2023-12-22T09:45:36;3.80;99.90
26063;DHT22;13837;48.562;12.108;2023-12-22T09:48:03;3.80;99.90
26063;DHT22;13837;48.562;12.108;2023-12-22T09:50:30;3.90;99.90
26063;DHT22;13837;48.562;12.108;2023-12-22T09:52:56;3.90;99.90
26063;DHT22;13837;48.562;12.108;2023-12-22T09:55:22;4.00;99.90
26063;DHT22;13837;48.562;12.108;2023-12-22T09:57:49;4.10;99.90
26063;DHT22;13837;48.562;12.108;2023-12-22T10:00:16;4.10;99.90
26063;DHT22;13837;48.562;12.108;2023-12-22T10:02:43;4.10;99.90
26063;DHT22;13837;48.562;12.108;2023-12-22T10:05:11;4.10;99.90
26063;DHT22;13837;48.562;12.108;2023-12-22T10:07:40;4.20;99.90
26063;DHT22;13837;48.562;12.108;2023-12-22T10:10:08;4.20;99.90
26063;DHT22;13837;48.562;12.108;2023-12-22T10:12:36;4.30;99.90
26063;DHT22;13837;48.562;12.108;2023-12-22T10:15:04;4.30;99.90
26063;DHT22;13837;48.562;12.108;2023-12-22T10:17:30;4.30;99.90
26063;DHT22;13837;48.562;12.108;2023-12-22T10:19:56;4.30;99.90
26063;DHT22;13837;48.562;12.108;2023-12-22T10:22:22;4.30;99.90
26063;DHT22;13837;48.562;12.108;2023-12-22T10:24:49;4.40;99.90
26063;DHT22;13837;48.562;12.108;2023-12-22T10:27:17;4.40;99.90
26063;DHT22;13837;48.562;12.108;2023-12-22T10:29:55;4.40;99.90
26063;DHT22;13837;48.562;12.108;2023-12-22T10:32:21;4.40;99.90
26063;DHT22;13837;48.562;12.108;2023-12-22T10:34:47;4.40;99.90
26063;DHT22;13837;48.562;12.108;2023-12-22T10:37:13;4.50;99.90
26063;DHT22;13837;48.562;12.108;2023-12-22T10:39:40;4.50;99.90
26063;DHT22;13837;48.562;12.108;2023-12-22T10:42:06;4.50;99.90
26063;DHT22;13837;48.562;12.108;2023-12-22T10:44:32;4.50;99.90
26063;DHT22;13837;48.562;12.108;2023-12-22T10:46:58;4.50;99.90
26063;DHT22;13837;48.562;12.108;2023-12-22T10:49:24;4.60;99.90
26063;DHT22;13837;48.562;12.108;2023-12-22T10:51:51;4.70;99.90
26063;DHT22;13837;48.562;12.108;2023-12-22T10:54:17;4.70;99.90
26063;DHT22;13837;48.562;12.108;2023-12-22T10:56:43;4.70;99.90
26063;DHT22;13837;48.562;12.108;2023-12-22T10:59:09;4.60;99.90
26063;DHT22;13837;48.562;12.108;2023-12-22T11:01:38;4.70;99.90
26063;DHT22;13837;48.562;12.108;2023-12-22T11:04:09;4.70;99.90
26063;DHT22;13837;48.562;12.108;2023-12-22T11:06:41;4.80;99.90
26063;DHT22;13837;48.562;12.108;2023-12-22T11:09:09;4.80;99.90
26063;DHT22;13837;48.562;12.108;2023-12-22T11:11:36;4.80;99.90
26063;DHT22;13837;48.562;12.108;2023-12-22T11:14:04;4.90;99.90
26063;DHT22;13837;48.562;12.108;2023-12-22T11:16:31;5.00;99.90
26063;DHT22;13837;48.562;12.108;2023-12-22T11:18:59;5.10;99.90
26063;DHT22;13837;48.562;12.108;2023-12-22T11:21:25;5.20;99.90
26063;DHT22;13837;48.562;12.108;2023-12-22T11:23:52;5.30;99.90
26063;DHT22;13837;48.562;12.108;2023-12-22T11:26:20;5.30;99.90
26063;DHT22;13837;48.562;12.108;2023-12-22T11:28:48;5.30;99.90
26063;DHT22;13837;48.562;12.108;2023-12-22T11:31:14;5.30;99.90
26063;DHT22;13837;48.562;12.108;2023-12-22T11:33:48;5.30;99.90
26063;DHT22;13837;48.562;12.108;2023-12-22T11:36:16;5.20;99.90
26063;DHT22;13837;48.562;12.108;2023-12-22T11:38:44;5.20;99.90
26063;DHT22;13837;48.562;12.108;2023-12-22T11:41:13;5.10;99.90
26063;DHT22;13837;48.562;12.108;2023-12-22T11:43:42;5.00;99.90
26063;DHT22;13837;48.562;12.108;2023-12-22T11:46:09;4.90;99.90
26063;DHT22;13837;48.562;12.108;2023-12-22T11:48:35;4.80;99.90
26063;DHT22;13837;48.562;12.108;2023-12-22T11:51:01;4.70;99.90
26063;DHT22;13837;48.562;12.108;2023-12-22T11:53:30;4.70;99.90
26063;DHT22;13837;48.562;12.108;2023-12-22T11:56:03;4.60;99.90
26063;DHT22;13837;48.562;12.108;2023-12-22T12:01:02;4.50;99.90
26063;DHT22;13837;48.562;12.108;2023-12-22T12:03:31;4.50;99.90
26063;DHT22;13837;48.562;12.108;2023-12-22T12:08:53;4.50;99.90
26063;DHT22;13837;48.562;12.108;2023-12-22T12:11:20;4.50;99.90
26063;DHT22;13837;48.562;12.108;2023-12-22T12:13:46;4.50;99.90
26063;DHT22;13837;48.562;12.108;2023-12-22T12:16:14;4.60;99.90
26063;DHT22;13837;48.562;12.108;2023-12-22T12:18:40;4.60;99.90
26063;DHT22;13837;48.562;12.108;2023-12-22T12:21:07;4.60;99.90
26063;DHT22;13837;48.562;12.108;2023-12-22T12:23:35;4.70;99.90
26063;DHT22;13837;48.562;12.108;2023-12-22T12:26:01;4.80;99.90
26063;DHT22;13837;48.562;12.108;2023-12-22T12:28:31;4.80;99.90
26063;DHT22;13837;48.562;12.108;2023-12-22T12:31:04;4.80;99.90
26063;DHT22;13837;48.562;12.108;2023-12-22T12:33:30;4.90;99.90
26063;DHT22;13837;48.562;12.108;2023-12-22T12:35:57;5.10;99.90
26063;DHT22;13837;48.562;12.108;2023-12-22T12:39:13;5.10;99.90
26063;DHT22;13837;48.562;12.108;2023-12-22T12:41:28;5.20;99.90
26063;DHT22;13837;48.562;12.108;2023-12-22T12:43:55;5.20;99.90
26063;DHT22;13837;48.562;12.108;2023-12-22T12:46:21;5.20;99.90
26063;DHT22;13837;48.562;12.108;2023-12-22T12:48:47;5.30;99.90
26063;DHT22;13837;48.562;12.108;2023-12-22T12:51:13;5.30;99.90
26063;DHT22;13837;48.562;12.108;2023-12-22T12:53:38;5.40;99.90
26063;DHT22;13837;48.562;12.108;2023-12-22T12:56:04;5.40;99.90
26063;DHT22;13837;48.562;12.108;2023-12-22T12:58:31;5.50;99.90
26063;DHT22;13837;48.562;12.108;2023-12-22T13:01:08;5.50;99.90
26063;DHT22;13837;48.562;12.108;2023-12-22T13:03:54;5.60;99.90
26063;DHT22;13837;48.562;12.108;2023-12-22T13:06:20;5.60;99.90
26063;DHT22;13837;48.562;12.108;2023-12-22T13:08:49;5.60;99.90
26063;DHT22;13837;48.562;12.108;2023-12-22T13:11:19;5.70;99.90
26063;DHT22;13837;48.562;12.108;2023-12-22T13:13:45;5.70;99.90
26063;DHT22;13837;48.562;12.108;2023-12-22T13:16:11;5.70;99.90
26063;DHT22;13837;48.562;12.108;2023-12-22T13:18:37;5.80;99.90
26063;DHT22;13837;48.562;12.108;2023-12-22T13:21:03;5.80;99.90
26063;DHT22;13837;48.562;12.108;2023-12-22T13:23:29;5.80;99.90
26063;DHT22;13837;48.562;12.108;2023-12-22T13:25:55;5.80;99.90
26063;DHT22;13837;48.562;12.108;2023-12-22T13:28:27;5.80;99.90
26063;DHT22;13837;48.562;12.108;2023-12-22T13:30:54;5.80;99.90
26063;DHT22;13837;48.562;12.108;2023-12-22T13:33:20;5.80;99.90
26063;DHT22;13837;48.562;12.108;2023-12-22T13:35:46;5.80;99.90
26063;DHT22;13837;48.562;12.108;2023-12-22T13:38:12;5.70;99.90
26063;DHT22;13837;48.562;12.108;2023-12-22T13:40:39;5.70;99.90
26063;DHT22;13837;48.562;12.108;2023-12-22T13:43:09;5.70;99.90
26063;DHT22;13837;48.562;12.108;2023-12-22T13:45:35;5.70;99.90
26063;DHT22;13837;48.562;12.108;2023-12-22T13:48:01;5.70;99.90
26063;DHT22;13837;48.562;12.108;2023-12-22T13:50:27;5.70;99.90
26063;DHT22;13837;48.562;12.108;2023-12-22T13:52:52;5.70;99.90
26063;DHT22;13837;48.562;12.108;2023-12-22T13:55:20;5.70;99.90
26063;DHT22;13837;48.562;12.108;2023-12-22T13:57:48;5.70;99.90
26063;DHT22;13837;48.562;12.108;2023-12-22T14:02:46;5.70;99.90
26063;DHT22;13837;48.562;12.108;2023-12-22T14:05:12;5.70;99.90
26063;DHT22;13837;48.562;12.108;2023-12-22T14:07:38;5.60;99.90
26063;DHT22;13837;48.562;12.108;2023-12-22T14:10:07;5.60;99.90
26063;DHT22;13837;48.562;12.108;2023-12-22T14:12:33;5.60;99.90
26063;DHT22;13837;48.562;12.108;2023-12-22T14:14:59;5.50;99.90
26063;DHT22;13837;48.562;12.108;2023-12-22T14:17:25;5.50;99.90
26063;DHT22;13837;48.562;12.108;2023-12-22T14:19:51;5.50;99.90
26063;DHT22;13837;48.562;12.108;2023-12-22T14:22:16;5.50;99.90
26063;DHT22;13837;48.562;12.108;2023-12-22T14:24:42;5.40;99.90
26063;DHT22;13837;48.562;12.108;2023-12-22T14:27:08;5.30;99.90
26063;DHT22;13837;48.562;12.108;2023-12-22T14:29:37;5.30;99.90
26063;DHT22;13837;48.562;12.108;2023-12-22T14:32:06;5.20;99.90
26063;DHT22;13837;48.562;12.108;2023-12-22T14:34:34;5.20;99.90
26063;DHT22;13837;48.562;12.108;2023-12-22T14:37:00;5.10;99.90
26063;DHT22;13837;48.562;12.108;2023-12-22T14:39:26;5.10;99.90
26063;DHT22;13837;48.562;12.108;2023-12-22T14:41:52;5.10;99.90
26063;DHT22;13837;48.562;12.108;2023-12-22T14:44:19;5.20;99.90
26063;DHT22;13837;48.562;12.108;2023-12-22T14:46:44;5.10;99.90
26063;DHT22;13837;48.562;12.108;2023-12-22T14:49:11;5.10;99.90
26063;DHT22;13837;48.562;12.108;2023-12-22T14:51:37;5.00;99.90
26063;DHT22;13837;48.562;12.108;2023-12-22T14:54:04;5.10;99.90
26063;DHT22;13837;48.562;12.108;2023-12-22T14:56:30;5.10;99.90
26063;DHT22;13837;48.562;12.108;2023-12-22T14:58:56;5.10;99.90
26063;DHT22;13837;48.562;12.108;2023-12-22T15:01:22;5.20;99.90
26063;DHT22;13837;48.562;12.108;2023-12-22T15:03:48;5.20;99.90
26063;DHT22;13837;48.562;12.108;2023-12-22T15:06:14;5.30;99.90
26063;DHT22;13837;48.562;12.108;2023-12-22T15:08:39;5.30;99.90
26063;DHT22;13837;48.562;12.108;2023-12-22T15:11:05;5.40;99.90
26063;DHT22;13837;48.562;12.108;2023-12-22T15:13:32;5.40;99.90
26063;DHT22;13837;48.562;12.108;2023-12-22T15:15:58;5.50;99.90
26063;DHT22;13837;48.562;12.108;2023-12-22T15:18:24;5.60;99.90
26063;DHT22;13837;48.562;12.108;2023-12-22T15:20:49;5.50;99.90
26063;DHT22;13837;48.562;12.108;2023-12-22T15:23:17;5.60;99.90
26063;DHT22;13837;48.562;12.108;2023-12-22T15:25:42;5.70;99.90
26063;DHT22;13837;48.562;12.108;2023-12-22T15:28:09;5.70;99.90
26063;DHT22;13837;48.562;12.108;2023-12-22T15:30:34;5.80;99.90
26063;DHT22;13837;48.562;12.108;2023-12-22T15:33:00;5.80;99.90
26063;DHT22;13837;48.562;12.108;2023-12-22T15:35:26;5.80;99.90
26063;DHT22;13837;48.562;12.108;2023-12-22T15:37:51;5.90;99.90
26063;DHT22;13837;48.562;12.108;2023-12-22T15:40:17;6.00;99.90
26063;DHT22;13837;48.562;12.108;2023-12-22T15:42:43;6.00;99.90
26063;DHT22;13837;48.562;12.108;2023-12-22T15:45:10;6.00;99.90
26063;DHT22;13837;48.562;12.108;2023-12-22T15:47:35;6.00;99.90